Time;durP1;ratioP1;P1;durP2;ratioP2;P2;SDS_P1;SDS_P2;PMS_P1;PMS_P2;Temp;Humidity;BMP_temperature;BMP_pressure;BME280_temperature;BME280_humidity;BME280_pressure;Samples;Min_cycle;Max_cycle;Signal;HPM_P1;HPM_P2
2023/06/18 00:01:25;;;;;;;32.08;22.90;;;;;;;14.66;95.09;94904.34;5098219;27;20082;-78
2023/06/18 00:03:50;;;;;;;36.95;24.17;;;;;;;14.83;94.82;94916.22;5134936;27;20023;-78
2023/06/18 00:06:16;;;;;;;29.00;22.75;;;;;;;14.41;94.25;94848.97;5115997;28;20034;-77
2023/06/18 00:08:41;;;;;;;44.33;24.55;;;;;;;14.85;94.69;94912.16;5115530;27;20049;-77
2023/06/18 00:11:07;;;;;;;35.65;24.77;;;;;;;14.71;95.15;94910.66;5134975;27;20064;-78
2023/06/18 00:13:32;;;;;;;32.03;24.85;;;;;;;14.64;95.96;94914.56;5134817;27;20070;-78
2023/06/18 00:15:57;;;;;;;31.92;25.48;;;;;;;14.55;96.17;94879.03;5133920;27;20035;-78
2023/06/18 00:18:23;;;;;;;32.53;24.20;;;;;;;14.41;96.12;94874.84;5134227;27;20035;-78
2023/06/18 00:20:49;;;;;;;34.55;26.30;;;;;;;14.56;96.24;94880.59;5134438;27;20027;-78
2023/06/18 00:23:14;;;;;;;33.75;26.75;;;;;;;14.76;96.25;94911.31;5133362;27;20054;-78
2023/06/18 00:25:40;;;;;;;34.72;26.15;;;;;;;14.64;95.99;94884.41;5115405;28;20039;-78
2023/06/18 00:28:05;;;;;;;35.85;27.05;;;;;;;14.41;94.63;94843.63;5134134;28;20048;-78
2023/06/18 00:30:32;;;;;;;32.97;26.15;;;;;;;14.29;95.30;94838.00;5134249;28;20023;-78
2023/06/18 00:32:58;;;;;;;35.45;28.35;;;;;;;14.55;96.87;94889.69;5115076;28;20035;-78
2023/06/18 00:35:24;;;;;;;34.53;26.83;;;;;;;14.64;96.49;94913.78;5114989;28;20049;-78
2023/06/18 00:37:50;;;;;;;34.90;27.75;;;;;;;14.26;96.45;94850.09;5115525;28;20069;-78
2023/06/18 00:40:15;;;;;;;37.42;28.90;;;;;;;14.38;95.88;94862.91;5114975;28;20031;-78
2023/06/18 00:42:42;;;;;;;36.95;27.98;;;;;;;14.68;96.32;94909.38;5114722;28;20039;-78
2023/06/18 00:45:09;;;;;;;37.85;27.50;;;;;;;14.69;96.38;94913.63;5115786;28;20416;-78
2023/06/18 00:47:42;;;;;;;39.88;28.45;;;;;;;14.76;96.46;94913.19;5114874;28;20038;-78
2023/06/18 00:50:08;;;;;;;41.00;29.70;;;;;;;14.57;96.08;94884.06;5114913;28;20133;-78
2023/06/18 00:52:36;;;;;;;37.20;27.98;;;;;;;14.60;95.86;94886.09;5115411;28;20041;-78
2023/06/18 00:55:02;;;;;;;37.95;29.92;;;;;;;14.70;96.39;94885.06;5114911;28;20031;-78
2023/06/18 00:57:30;;;;;;;42.70;30.35;;;;;;;14.82;96.09;94907.41;5133700;28;20058;-78
2023/06/18 00:59:56;;;;;;;37.00;30.25;;;;;;;14.84;96.37;94909.78;5115214;28;20027;-78
2023/06/18 01:02:25;;;;;;;39.05;30.30;;;;;;;13.21;95.51;94677.50;5133503;28;20049;-78
2023/06/18 01:04:54;;;;;;;37.33;29.10;;;;;;;13.99;95.52;94788.09;5114322;28;20055;-78
2023/06/18 01:07:22;;;;;;;42.53;30.30;;;;;;;14.85;96.73;94911.38;5115062;28;20039;-78
2023/06/18 01:09:53;;;;;;;46.03;31.45;;;;;;;14.30;96.87;94842.25;5133966;28;20051;-78
2023/06/18 01:12:22;;;;;;;;;;;;;;;14.72;96.49;94907.69;5134513;28;20121;-78
2023/06/18 01:14:50;;;;;;;45.38;30.52;;;;;;;14.59;96.64;94882.66;5115038;28;19916;-78
2023/06/18 01:17:19;;;;;;;40.22;30.80;;;;;;;14.65;96.77;94883.28;5103787;28;20027;-78
2023/06/18 01:19:55;;;;;;;44.35;31.88;;;;;;;14.79;97.03;94904.59;5130205;28;20450;-78
2023/06/18 01:22:37;;;;;;;44.95;32.13;;;;;;;14.60;96.53;94905.56;5114767;28;20027;-78
2023/06/18 01:25:05;;;;;;;44.85;32.08;;;;;;;14.48;96.93;94881.34;5130814;28;20046;-78
2023/06/18 01:27:33;;;;;;;42.78;32.08;;;;;;;14.23;97.38;94874.69;5105597;28;20047;-78
2023/06/18 01:30:00;;;;;;;40.33;32.10;;;;;;;14.39;98.19;94899.16;5133421;27;20035;-78
2023/06/18 01:32:27;;;;;;;44.17;31.35;;;;;;;14.23;98.10;94895.25;5108611;28;20050;-78
2023/06/18 01:34:55;;;;;;;45.80;34.30;;;;;;;14.25;99.03;94893.88;5115974;27;20031;-78
2023/06/18 01:37:44;;;;;;;47.83;32.22;;;;;;;14.27;98.89;94917.53;5117975;27;20027;-78
2023/06/18 01:40:38;;;;;;;46.55;32.65;;;;;;;14.05;99.90;94877.53;5114907;28;20486;-77
2023/06/18 01:43:11;;;;;;;53.88;34.13;;;;;;;14.26;99.67;94910.66;5116782;27;20027;-78
2023/06/18 01:45:45;;;;;;;44.70;33.03;;;;;;;13.91;100.00;94870.38;5137119;27;20035;-78
2023/06/18 01:48:13;;;;;;;46.85;34.33;;;;;;;13.83;100.00;94867.63;5118489;27;20175;-78
2023/06/18 01:50:42;;;;;;;47.00;35.15;;;;;;;13.92;100.00;94857.84;5137304;27;20046;-78
2023/06/18 01:53:11;;;;;;;51.03;34.65;;;;;;;14.10;100.00;94890.75;5137113;27;20027;-77
2023/06/18 01:55:37;;;;;;;45.25;34.15;;;;;;;13.88;99.53;94844.31;5118904;27;20023;-78
2023/06/18 01:58:03;;;;;;;46.45;34.42;;;;;;;13.81;99.89;94837.81;5118243;27;20030;-78
2023/06/18 02:00:28;;;;;;;52.38;35.25;;;;;;;14.10;99.71;94882.75;5118289;27;20102;-77
2023/06/18 02:02:54;;;;;;;45.35;33.80;;;;;;;13.95;99.43;94857.25;5136056;27;20106;-78
2023/06/18 02:05:19;;;;;;;46.72;35.53;;;;;;;14.35;99.12;94908.03;5117407;27;20023;-78
2023/06/18 02:07:45;;;;;;;47.67;34.38;;;;;;;14.42;98.16;94922.53;5136179;27;20051;-77
2023/06/18 02:10:10;;;;;;;48.88;35.80;;;;;;;14.04;98.19;94859.94;5117670;27;20065;-78
2023/06/18 02:12:36;;;;;;;46.22;35.15;;;;;;;14.09;98.64;94878.50;5136401;27;20442;-78
2023/06/18 02:15:02;;;;;;;47.45;33.38;;;;;;;13.57;98.38;94790.16;5136302;27;20031;-78
2023/06/18 02:17:28;;;;;;;52.15;34.58;;;;;;;14.08;99.01;94852.94;5117588;27;20038;-78
2023/06/18 02:19:54;;;;;;;44.60;34.40;;;;;;;14.46;98.24;94902.19;5117638;27;20020;-78
2023/06/18 02:22:22;;;;;;;53.20;33.65;;;;;;;14.54;97.74;94914.81;5118035;27;20038;-78
2023/06/18 02:24:48;;;;;;;44.63;34.17;;;;;;;14.58;98.32;94914.97;5136750;27;20050;-78
2023/06/18 02:27:13;;;;;;;55.58;33.92;;;;;;;14.17;97.07;94848.47;5136714;27;20031;-78
2023/06/18 02:29:39;;;;;;;45.25;34.25;;;;;;;14.47;96.84;94906.44;5118031;27;20347;-78
2023/06/18 02:32:05;;;;;;;51.25;33.97;;;;;;;14.34;97.82;94904.59;5136320;27;20409;-78
2023/06/18 02:34:31;;;;;;;44.90;34.22;;;;;;;14.34;97.43;94880.59;5117750;27;20035;-78
2023/06/18 02:36:57;;;;;;;48.15;33.15;;;;;;;14.45;97.63;94919.28;5117510;27;20031;-78
2023/06/18 02:39:22;;;;;;;42.08;32.72;;;;;;;14.55;97.61;94897.69;5116902;27;20031;-78
2023/06/18 02:41:48;;;;;;;46.42;35.72;;;;;;;14.50;97.52;94873.78;5116600;27;20533;-78
2023/06/18 02:44:13;;;;;;;46.15;34.35;;;;;;;14.76;96.91;94911.31;5117620;27;20394;-78
2023/06/18 02:46:39;;;;;;;48.08;34.50;;;;;;;14.16;96.47;94804.22;5117369;27;20023;-79
2023/06/18 02:49:04;;;;;;;44.45;33.00;;;;;;;14.49;95.29;94855.44;5117589;27;20472;-78
2023/06/18 02:51:30;;;;;;;44.63;33.15;;;;;;;14.78;95.58;94933.16;5117460;27;20109;-78
2023/06/18 02:53:55;;;;;;;52.55;32.90;;;;;;;14.60;96.63;94896.78;5135611;27;20134;-78
2023/06/18 02:56:21;;;;;;;44.13;32.83;;;;;;;14.60;96.17;94900.22;5125701;27;20036;-78
2023/06/18 02:58:51;;;;;;;44.65;35.20;;;;;;;14.15;96.71;94854.09;5128374;27;20350;-78
2023/06/18 03:01:19;;;;;;;42.47;32.92;;;;;;;14.14;97.45;94859.72;5135844;27;20054;-78
2023/06/18 03:03:44;;;;;;;50.58;35.20;;;;;;;14.63;97.62;94934.34;5116723;27;20110;-78
2023/06/18 03:06:10;;;;;;;47.30;34.17;;;;;;;14.38;97.98;94889.56;5116781;27;20051;-78
2023/06/18 03:08:35;;;;;;;48.13;35.70;;;;;;;14.60;97.70;94932.25;5116931;27;20049;-78
2023/06/18 03:11:01;;;;;;;47.15;34.15;;;;;;;14.68;97.92;94931.53;5135314;27;20035;-78
2023/06/18 03:13:26;;;;;;;48.90;33.47;;;;;;;14.51;97.49;94918.06;5134974;27;20027;-78
2023/06/18 03:15:52;;;;;;;47.67;36.88;;;;;;;14.45;97.19;94908.63;5115742;27;20038;-78
2023/06/18 03:18:17;;;;;;;46.20;33.38;;;;;;;14.37;97.52;94887.19;5134263;27;20035;-78
2023/06/18 03:20:42;;;;;;;46.15;34.08;;;;;;;14.54;97.40;94912.13;5135807;27;20056;-77
2023/06/18 03:23:08;;;;;;;45.03;34.47;;;;;;;14.37;97.40;94900.53;5135003;27;20035;-78
2023/06/18 03:25:33;;;;;;;45.63;34.78;;;;;;;14.11;97.54;94860.34;5134504;27;20031;-78
2023/06/18 03:27:59;;;;;;;45.88;33.97;;;;;;;13.80;98.11;94815.72;5134802;27;20112;-78
2023/06/18 03:30:24;;;;;;;48.75;35.30;;;;;;;13.94;97.87;94828.22;5116122;27;20119;-78
2023/06/18 03:32:50;;;;;;;54.80;35.47;;;;;;;14.18;97.33;94877.50;5116282;27;20119;-78
2023/06/18 03:35:15;;;;;;;47.88;34.70;;;;;;;14.67;97.77;94927.28;5134340;27;20115;-78
2023/06/18 03:37:42;;;;;;;48.50;34.88;;;;;;;14.89;96.72;94949.69;5134376;27;20474;-78
2023/06/18 03:40:08;;;;;;;47.40;33.70;;;;;;;14.70;96.68;94922.44;5115927;27;20023;-78
2023/06/18 03:42:34;;;;;;;46.47;35.25;;;;;;;14.59;96.54;94897.88;5116132;27;20113;-78
2023/06/18 03:44:59;;;;;;;41.92;32.85;;;;;;;15.02;96.43;94943.50;5116217;27;20103;-77
2023/06/18 03:47:25;;;;;;;44.72;35.80;;;;;;;15.06;96.64;94945.25;5133740;27;20031;-78
2023/06/18 03:49:50;;;;;;;48.03;33.97;;;;;;;14.15;95.12;94807.97;5134271;27;20031;-78
2023/06/18 03:52:16;;;;;;;43.72;33.42;;;;;;;15.06;95.74;94931.09;5114988;27;20027;-78
2023/06/18 03:54:42;;;;;;;44.55;32.88;;;;;;;14.86;94.62;94915.63;5134466;27;20504;-78
2023/06/18 03:57:08;;;;;;;45.10;33.58;;;;;;;14.79;96.11;94909.94;5098622;27;20087;-78
2023/06/18 03:59:34;;;;;;;48.63;35.33;;;;;;;14.29;95.75;94814.81;5134042;27;20023;-78
2023/06/18 04:01:59;;;;;;;47.05;33.25;;;;;;;15.08;95.44;94920.91;5115992;28;20031;-78
2023/06/18 04:04:25;;;;;;;47.03;32.42;;;;;;;14.63;94.94;94870.28;5115455;27;20429;-78
2023/06/18 04:06:51;;;;;;;40.50;32.28;;;;;;;15.33;95.37;94951.50;5115839;27;20054;-78
2023/06/18 04:09:16;;;;;;;47.75;34.33;;;;;;;14.99;95.00;94926.22;5133660;27;20047;-78
2023/06/18 04:11:45;;;;;;;41.88;32.70;;;;;;;14.80;94.95;94888.25;5115792;28;20051;-78
2023/06/18 04:14:10;;;;;;;45.00;32.97;;;;;;;15.31;96.22;94953.69;5134160;27;20454;-78
2023/06/18 04:16:36;;;;;;;42.03;32.22;;;;;;;14.98;95.30;94954.00;5115369;28;20031;-78
2023/06/18 04:19:01;;;;;;;46.13;32.95;;;;;;;15.20;95.82;94960.38;5133945;27;20023;-78
2023/06/18 04:21:27;;;;;;;44.28;33.35;;;;;;;14.59;95.21;94865.84;5115403;28;20035;-78
2023/06/18 04:23:53;;;;;;;51.53;35.15;;;;;;;14.60;95.68;94868.22;5115273;27;20078;-78
2023/06/18 04:26:19;;;;;;;47.85;34.50;;;;;;;15.20;95.10;94957.72;5133762;28;20474;-78
2023/06/18 04:28:45;;;;;;;43.47;32.80;;;;;;;15.20;95.36;94960.38;5114594;28;20078;-77
2023/06/18 04:31:10;;;;;;;45.97;32.40;;;;;;;15.01;95.79;94942.72;5115497;28;20035;-78
2023/06/18 04:33:36;;;;;;;45.58;33.50;;;;;;;14.77;95.77;94896.88;5134164;28;20035;-78
2023/06/18 04:36:01;;;;;;;44.17;33.38;;;;;;;14.76;95.62;94930.00;5114898;28;20068;-78
2023/06/18 04:38:27;;;;;;;48.47;36.03;;;;;;;14.73;96.91;94914.59;5134341;28;20031;-78
2023/06/18 04:40:52;;;;;;;45.78;34.38;;;;;;;14.84;96.48;94912.47;5114933;28;20068;-78
2023/06/18 04:43:18;;;;;;;46.05;34.13;;;;;;;15.27;96.06;94966.06;5133438;28;20063;-78
2023/06/18 04:45:47;;;;;;;44.88;33.55;;;;;;;15.20;96.38;94966.53;5133353;28;20031;-78
2023/06/18 04:48:14;;;;;;;46.75;34.08;;;;;;;14.63;95.69;94896.97;5115142;28;20043;-78
2023/06/18 04:50:40;;;;;;;44.05;32.60;;;;;;;15.25;94.60;94981.66;5115233;28;20553;-78
2023/06/18 04:53:05;;;;;;;44.60;34.33;;;;;;;14.75;95.93;94907.06;5133098;28;20053;-78
2023/06/18 04:55:31;;;;;;;43.10;33.50;;;;;;;15.12;95.52;94974.50;5115157;28;20039;-78
2023/06/18 04:57:56;;;;;;;41.50;32.80;;;;;;;15.11;95.56;94968.34;5133683;28;20035;-78
2023/06/18 05:00:22;;;;;;;49.80;33.97;;;;;;;14.98;95.47;94953.22;5133079;28;20106;-78
2023/06/18 05:02:48;;;;;;;48.28;34.38;;;;;;;15.02;95.38;94957.66;5115834;27;20031;-78
2023/06/18 05:05:15;;;;;;;40.00;33.53;;;;;;;14.97;94.50;94936.41;5118362;27;20038;-78
2023/06/18 05:07:41;;;;;;;42.25;32.85;;;;;;;15.29;94.39;94971.91;5137772;27;20035;-78
2023/06/18 05:10:07;;;;;;;46.78;33.45;;;;;;;15.62;94.74;94999.91;5137565;27;20053;-78
2023/06/18 05:12:33;;;;;;;44.15;32.80;;;;;;;15.44;94.04;94972.28;5118994;27;20084;-78
2023/06/18 05:14:58;;;;;;;41.92;31.73;;;;;;;15.06;94.56;94939.91;5119121;27;20416;-78
2023/06/18 05:17:23;;;;;;;46.20;32.92;;;;;;;15.46;93.96;95014.75;5126783;27;20028;-78
2023/06/18 05:19:49;;;;;;;42.65;33.65;;;;;;;15.57;95.17;95012.59;5131212;27;20023;-78
2023/06/18 05:22:14;;;;;;;38.38;30.95;;;;;;;15.60;93.00;95020.81;5119151;27;20031;-78
2023/06/18 05:24:40;;;;;;;42.45;30.92;;;;;;;15.43;93.28;95015.34;5137207;27;20033;-78
2023/06/18 05:27:06;;;;;;;40.97;29.98;;;;;;;15.45;93.02;95019.31;5117972;27;20031;-78
2023/06/18 05:29:31;;;;;;;42.88;32.47;;;;;;;15.43;92.75;94993.97;5118364;27;20031;-78
2023/06/18 05:31:57;;;;;;;44.90;32.28;;;;;;;15.67;93.31;95037.19;5118298;27;20023;-78
2023/06/18 05:34:23;;;;;;;40.50;32.05;;;;;;;15.63;92.53;95032.78;5136927;27;20027;-78
2023/06/18 05:36:48;;;;;;;37.22;29.38;;;;;;;15.68;92.96;95030.75;5136398;27;20034;-78
2023/06/18 05:39:14;;;;;;;40.17;32.25;;;;;;;15.72;93.97;95017.53;5117914;27;20056;-78
2023/06/18 05:41:40;;;;;;;42.72;33.28;;;;;;;15.92;93.76;95030.38;5118429;27;20095;-78
2023/06/18 05:44:05;;;;;;;43.95;31.50;;;;;;;15.92;93.49;95027.69;5118256;27;20113;-78
2023/06/18 05:46:31;;;;;;;37.88;30.60;;;;;;;15.81;93.81;95024.50;5136841;27;20080;-78
2023/06/18 05:48:56;;;;;;;37.58;29.80;;;;;;;15.89;91.82;95020.28;5115886;27;20271;-78
2023/06/18 05:51:22;;;;;;;40.53;29.85;;;;;;;15.72;93.29;95015.66;5108038;28;20039;-78
2023/06/18 05:53:47;;;;;;;38.28;30.65;;;;;;;15.62;92.38;95010.59;5115207;28;20028;-78
2023/06/18 05:56:13;;;;;;;35.55;27.38;;;;;;;15.65;92.91;95055.41;5118183;27;20417;-78
2023/06/18 05:58:38;;;;;;;41.42;30.92;;;;;;;15.51;93.12;95027.19;5118381;27;20031;-78
2023/06/18 06:01:04;;;;;;;38.95;30.45;;;;;;;15.47;93.04;94986.13;5118510;27;20023;-78
2023/06/18 06:03:29;;;;;;;40.08;29.88;;;;;;;15.53;93.62;94996.41;5136752;27;20031;-78
2023/06/18 06:05:55;;;;;;;39.92;30.08;;;;;;;15.84;93.11;95052.53;5118097;27;20121;-78
2023/06/18 06:08:21;;;;;;;42.83;30.98;;;;;;;15.84;92.53;95063.22;5117902;27;20513;-78
2023/06/18 06:10:47;;;;;;;39.42;29.85;;;;;;;15.49;93.38;95013.31;5117265;27;20073;-78
2023/06/18 06:13:12;;;;;;;37.38;29.63;;;;;;;15.05;92.88;94956.22;5117802;27;20027;-79
2023/06/18 06:15:38;;;;;;;43.78;30.70;;;;;;;15.81;94.16;95067.28;5116691;27;20038;-78
2023/06/18 06:18:04;;;;;;;41.30;31.77;;;;;;;15.78;93.32;95056.44;5118390;27;20031;-78
2023/06/18 06:20:29;;;;;;;40.38;29.13;;;;;;;15.77;92.84;95071.69;5136713;27;20035;-78
2023/06/18 06:22:54;;;;;;;39.50;28.88;;;;;;;15.24;93.16;94990.75;5117691;27;20035;-78
2023/06/18 06:25:20;;;;;;;40.53;29.35;;;;;;;15.33;93.52;95012.97;5136202;27;20051;-78
2023/06/18 06:27:46;;;;;;;37.55;28.10;;;;;;;15.54;94.04;95058.69;5135614;27;20038;-78
2023/06/18 06:30:12;;;;;;;37.28;28.67;;;;;;;15.59;93.81;95051.31;5117412;27;20500;-78
2023/06/18 06:32:37;;;;;;;40.00;28.17;;;;;;;15.30;93.28;95014.34;5118088;27;20042;-78
2023/06/18 06:35:03;;;;;;;31.98;26.10;;;;;;;15.46;92.18;95025.44;5117919;27;20039;-78
2023/06/18 06:37:29;;;;;;;32.40;26.30;;;;;;;15.67;90.34;95061.25;5117812;27;20031;-78
2023/06/18 06:39:55;;;;;;;40.05;28.80;;;;;;;15.58;92.06;95022.19;5117486;27;20076;-78
2023/06/18 06:42:21;;;;;;;39.85;29.00;;;;;;;16.03;93.09;95077.13;5117906;27;20482;-78
2023/06/18 06:44:47;;;;;;;37.92;29.15;;;;;;;16.43;93.07;95095.78;5117357;27;20042;-79
2023/06/18 06:47:12;;;;;;;36.60;26.13;;;;;;;16.20;89.97;95063.00;5116545;27;20535;-78
2023/06/18 06:49:38;;;;;;;37.65;27.17;;;;;;;16.28;90.21;95053.41;5116295;27;20447;-78
2023/06/18 06:52:03;;;;;;;34.03;24.00;;;;;;;16.21;87.92;95053.88;5116943;27;20120;-78
2023/06/18 06:54:29;;;;;;;34.13;25.00;;;;;;;16.38;88.49;95053.13;5117421;27;20023;-78
2023/06/18 06:56:54;;;;;;;33.13;24.73;;;;;;;16.38;89.86;95037.06;5116596;27;20067;-78
2023/06/18 06:59:20;;;;;;;30.55;24.88;;;;;;;16.24;86.55;95042.56;5118006;27;20024;-78
2023/06/18 07:01:45;;;;;;;30.90;22.15;;;;;;;16.57;85.83;95096.44;5135954;27;20505;-78
2023/06/18 07:04:11;;;;;;;27.63;21.67;;;;;;;16.74;85.42;95101.06;5135767;27;20031;-78
2023/06/18 07:06:38;;;;;;;29.48;22.05;;;;;;;16.71;86.23;95077.59;5135382;27;20027;-78
2023/06/18 07:09:07;;;;;;;29.30;22.20;;;;;;;16.77;84.98;95109.28;5116512;27;20138;-78
2023/06/18 07:11:36;;;;;;;30.17;21.35;;;;;;;16.53;84.53;95112.38;5106817;28;20484;-78
2023/06/18 07:14:02;;;;;;;24.27;21.55;;;;;;;16.34;85.75;95097.66;5113955;27;20063;-78
2023/06/18 07:16:27;;;;;;;33.10;21.63;;;;;;;16.61;86.54;95120.75;5117080;27;20031;-78
2023/06/18 07:18:53;;;;;;;36.22;23.38;;;;;;;16.20;86.12;95071.81;5116522;27;20027;-79
2023/06/18 07:21:18;;;;;;;31.15;21.92;;;;;;;16.32;87.17;95081.16;5134652;27;20107;-78
2023/06/18 07:23:44;;;;;;;31.52;22.92;;;;;;;16.49;88.67;95126.66;5134746;27;20114;-78
2023/06/18 07:26:09;;;;;;;37.35;23.90;;;;;;;16.29;88.45;95095.94;5115313;27;20042;-78
2023/06/18 07:28:35;;;;;;;31.30;23.58;;;;;;;15.75;88.19;94982.19;5116980;27;20026;-78
2023/06/18 07:31:01;;;;;;;27.13;22.35;;;;;;;15.98;86.97;94999.69;5135701;27;20034;-78
2023/06/18 07:33:26;;;;;;;28.40;23.17;;;;;;;15.89;86.10;94966.00;5107283;28;20036;-78
2023/06/18 07:35:52;;;;;;;32.67;24.33;;;;;;;16.68;86.91;95052.25;5129638;27;20428;-78
2023/06/18 07:38:17;;;;;;;36.33;23.02;;;;;;;16.84;86.40;95119.53;5116176;27;20064;-78
2023/06/18 07:40:43;;;;;;;28.85;21.95;;;;;;;16.90;85.68;95113.69;5116064;27;20587;-78
2023/06/18 07:43:09;;;;;;;31.60;22.15;;;;;;;16.62;84.73;95060.75;5116160;27;20582;-78
2023/06/18 07:45:35;;;;;;;28.02;23.10;;;;;;;16.46;86.62;95068.41;5134999;27;20023;-78
2023/06/18 07:48:01;;;;;;;29.45;19.95;;;;;;;16.97;85.96;95119.38;5116650;27;20114;-78
2023/06/18 07:50:27;;;;;;;32.60;20.98;;;;;;;16.57;85.83;95069.69;5116860;27;20441;-78
2023/06/18 07:52:52;;;;;;;28.33;22.65;;;;;;;17.02;85.81;95114.94;5134779;27;20035;-78
2023/06/18 07:55:18;;;;;;;26.17;21.10;;;;;;;17.06;84.60;95129.31;5134575;27;20027;-78
2023/06/18 07:57:43;;;;;;;37.17;20.63;;;;;;;16.95;84.52;95129.59;5134504;27;20047;-78
2023/06/18 08:00:09;;;;;;;29.70;19.63;;;;;;;16.83;84.10;95120.63;5134192;27;20045;-78
2023/06/18 08:02:35;;;;;;;27.15;19.90;;;;;;;16.72;85.33;95098.72;5116522;27;20382;-78
2023/06/18 08:05:01;;;;;;;27.90;19.88;;;;;;;16.93;85.13;95126.47;5115935;27;20031;-78
2023/06/18 08:07:26;;;;;;;35.00;20.80;;;;;;;16.10;85.67;94983.03;5115821;27;20034;-78
2023/06/18 08:09:52;;;;;;;23.77;19.42;;;;;;;17.11;84.28;95156.72;5116368;27;20024;-78
2023/06/18 08:12:17;;;;;;;29.08;19.65;;;;;;;16.95;83.96;95115.44;5116399;28;20023;-78
2023/06/18 08:14:46;;;;;;;27.90;20.42;;;;;;;17.04;83.94;95129.63;5116330;27;20035;-78
2023/06/18 08:17:16;;;;;;;28.35;19.83;;;;;;;17.33;82.56;95155.78;5116608;27;20118;-78
2023/06/18 08:19:45;;;;;;;20.00;16.02;;;;;;;17.13;81.72;95159.88;5116331;27;20027;-78
2023/06/18 08:22:15;;;;;;;21.33;17.60;;;;;;;17.16;81.77;95163.84;5116796;28;20027;-78
2023/06/18 08:24:41;;;;;;;21.55;17.20;;;;;;;16.92;81.57;95132.94;5135003;27;20037;-78
2023/06/18 08:27:07;;;;;;;21.90;16.15;;;;;;;17.06;81.63;95167.59;5116533;28;20035;-78
2023/06/18 08:29:33;;;;;;;20.27;16.13;;;;;;;16.89;82.61;95127.41;5134039;28;20038;-78
2023/06/18 08:32:04;;;;;;;20.75;15.65;;;;;;;17.13;82.20;95149.16;5134533;28;20073;-78
2023/06/18 08:34:30;;;;;;;;;;;;;;;17.21;82.69;95171.72;5116994;28;20038;-78
2023/06/18 08:36:55;;;;;;;26.25;16.73;;;;;;;17.11;82.01;95154.03;5113527;28;20293;-78
2023/06/18 08:39:20;;;;;;;22.42;16.90;;;;;;;17.25;81.74;95152.00;5124339;27;20109;-78
2023/06/18 08:41:46;;;;;;;21.35;16.08;;;;;;;17.51;81.92;95154.66;5119677;27;20027;-78
2023/06/18 08:44:11;;;;;;;23.98;17.08;;;;;;;17.41;81.33;95144.25;5138720;27;20151;-78
2023/06/18 08:46:38;;;;;;;26.45;16.83;;;;;;;17.23;81.78;95097.94;5120172;27;20031;-78
2023/06/18 08:49:06;;;;;;;22.45;15.32;;;;;;;17.46;79.46;95156.72;5133449;27;20095;-78
2023/06/18 08:51:34;;;;;;;21.35;16.35;;;;;;;17.11;79.47;95108.50;5110417;28;20146;-78
2023/06/18 08:54:13;;;;;;;25.83;16.95;;;;;;;17.19;79.49;95088.16;5136803;27;20485;-78
2023/06/18 08:56:49;;;;;;;21.25;15.50;;;;;;;17.73;78.23;95156.41;5138394;27;20038;-78
2023/06/18 08:59:15;;;;;;;17.55;14.93;;;;;;;17.88;77.73;95179.25;5137941;27;20051;-78
2023/06/18 09:01:45;;;;;;;21.98;15.38;;;;;;;17.78;78.10;95176.88;5119309;27;20062;-78
2023/06/18 09:04:12;;;;;;;22.83;15.35;;;;;;;17.64;77.82;95136.84;5119372;27;20410;-78
2023/06/18 09:06:39;;;;;;;25.85;14.23;;;;;;;17.99;77.67;95177.81;5137791;27;20024;-78
2023/06/18 09:09:05;;;;;;;27.58;15.82;;;;;;;17.92;79.16;95140.75;5119192;27;20043;-78
2023/06/18 09:11:33;;;;;;;22.15;14.35;;;;;;;18.06;75.53;95167.38;5119458;27;20103;-78
2023/06/18 09:13:58;;;;;;;20.98;14.27;;;;;;;17.76;76.13;95137.00;5119249;27;20093;-78
2023/06/18 09:16:24;;;;;;;22.98;15.18;;;;;;;17.88;75.97;95130.94;5118374;27;20111;-78
2023/06/18 09:18:50;;;;;;;20.60;13.65;;;;;;;17.95;76.14;95160.75;5118841;27;20063;-78
2023/06/18 09:21:43;;;;;;;26.80;13.85;;;;;;;18.04;75.80;95178.41;5119067;27;20141;-78
2023/06/18 09:24:14;;;;;;;16.80;12.98;;;;;;;17.67;75.14;95138.91;5130387;27;20055;-77
2023/06/18 09:26:39;;;;;;;;;;;;;;;18.05;74.85;95177.31;5119582;27;20035;-78
2023/06/18 09:29:06;;;;;;;18.35;14.60;;;;;;;18.02;76.20;95167.22;5137765;27;19922;-78
2023/06/18 09:31:33;;;;;;;19.30;14.05;;;;;;;18.18;75.92;95156.75;5118263;27;20046;-79
2023/06/18 09:34:12;;;;;;;20.02;14.45;;;;;;;18.20;75.41;95151.06;5118811;27;20465;-78
2023/06/18 09:36:41;;;;;;;20.83;13.07;;;;;;;18.05;75.75;95123.66;5136858;27;20038;-78
2023/06/18 09:39:18;;;;;;;19.20;13.65;;;;;;;18.12;74.70;95131.19;5137406;27;20043;-78
2023/06/18 09:41:45;;;;;;;22.20;13.85;;;;;;;18.26;75.15;95180.09;5136832;27;20047;-78
2023/06/18 09:44:12;;;;;;;16.83;11.85;;;;;;;18.39;73.81;95172.91;5101272;27;20055;-78
2023/06/18 09:46:41;;;;;;;16.58;12.13;;;;;;;18.42;73.65;95165.03;5137074;27;20035;-77
2023/06/18 09:49:06;;;;;;;16.20;12.68;;;;;;;18.57;74.34;95154.88;5136037;27;20043;-78
2023/06/18 09:51:38;;;;;;;23.85;12.98;;;;;;;18.48;72.43;95163.72;5118350;27;20035;-78
2023/06/18 09:54:03;;;;;;;18.75;13.25;;;;;;;18.72;73.48;95176.59;5117945;27;20038;-78
2023/06/18 09:56:29;;;;;;;14.45;11.73;;;;;;;18.54;72.66;95155.50;5118506;27;20027;-78
2023/06/18 09:58:55;;;;;;;19.08;12.63;;;;;;;18.71;73.47;95185.75;5136590;27;20106;-78
2023/06/18 10:01:20;;;;;;;21.20;12.55;;;;;;;18.58;73.69;95169.88;5118438;27;20247;-78
2023/06/18 10:03:46;;;;;;;20.05;12.23;;;;;;;18.49;73.00;95138.44;5118483;27;20039;-78
2023/06/18 10:06:20;;;;;;;17.45;12.40;;;;;;;18.67;73.06;95184.06;5136632;27;20035;-78
2023/06/18 10:08:58;;;;;;;15.23;11.80;;;;;;;18.32;73.25;95156.53;5137219;27;20051;-78
2023/06/18 10:11:25;;;;;;;16.67;11.10;;;;;;;18.23;74.21;95180.75;5118917;27;20058;-78
2023/06/18 10:13:58;;;;;;;22.00;12.50;;;;;;;18.37;74.82;95183.22;5135843;27;20104;-78
2023/06/18 10:16:27;;;;;;;16.73;11.63;;;;;;;18.41;74.52;95157.28;5107906;28;20024;-78
2023/06/18 10:19:05;;;;;;;18.95;12.02;;;;;;;18.63;72.39;95167.78;5115803;27;20525;-79
2023/06/18 10:21:35;;;;;;;18.10;10.80;;;;;;;18.86;72.58;95170.97;5118118;27;20088;-79
2023/06/18 10:24:17;;;;;;;19.63;11.95;;;;;;;18.97;72.25;95168.69;5114114;27;20035;-79
2023/06/18 10:26:43;;;;;;;11.60;10.15;;;;;;;18.72;71.73;95143.56;5111183;27;20494;-78
2023/06/18 10:29:10;;;;;;;14.65;10.45;;;;;;;18.72;72.06;95152.41;5095233;28;20043;-79
2023/06/18 10:31:37;;;;;;;17.35;11.68;;;;;;;18.84;71.81;95168.59;5094859;28;20111;-78
2023/06/18 10:34:02;;;;;;;18.40;11.38;;;;;;;18.69;72.01;95169.16;5076893;28;20032;-78
2023/06/18 10:36:28;;;;;;;14.73;10.85;;;;;;;18.54;71.77;95115.97;5077000;28;20085;-79
2023/06/18 10:38:56;;;;;;;18.33;10.48;;;;;;;18.58;70.98;95121.53;5076789;28;20577;-78
2023/06/18 10:41:22;;;;;;;12.80;10.25;;;;;;;18.72;71.24;95147.03;5076701;28;20035;-78
2023/06/18 10:43:52;;;;;;;13.77;10.45;;;;;;;18.71;71.55;95147.34;5094926;28;20528;-79
2023/06/18 10:46:18;;;;;;;13.02;10.73;;;;;;;18.96;72.08;95159.06;5065511;28;20028;-79
2023/06/18 10:49:15;;;;;;;16.25;10.48;;;;;;;19.03;71.53;95154.75;5091195;28;20409;-78
2023/06/18 10:51:56;;;;;;;16.05;10.13;;;;;;;18.99;70.76;95143.09;5094418;28;20089;-78
2023/06/18 10:54:22;;;;;;;;;;;;;;;19.17;70.11;95165.22;5095123;28;20055;-78
2023/06/18 10:56:54;;;;;;;15.45;10.13;;;;;;;19.08;70.20;95162.59;5094555;28;19916;-78
2023/06/18 10:59:42;;;;;;;15.25;9.80;;;;;;;19.05;71.58;95152.53;5076243;28;20056;-79
2023/06/18 11:02:08;;;;;;;14.65;9.30;;;;;;;18.83;71.19;95120.59;5094750;28;20040;-79
2023/06/18 11:04:34;;;;;;;13.35;10.70;;;;;;;18.97;71.48;95137.25;5076395;28;20051;-78
2023/06/18 11:07:23;;;;;;;15.43;10.45;;;;;;;19.15;71.76;95125.22;5076605;28;20036;-78
2023/06/18 11:09:53;;;;;;;12.95;10.10;;;;;;;19.34;70.39;95167.78;5076448;28;20487;-78
2023/06/18 11:12:24;;;;;;;12.23;9.95;;;;;;;19.04;70.38;95125.97;5076249;28;20490;-79
2023/06/18 11:15:25;;;;;;;14.02;10.65;;;;;;;19.08;72.59;95156.44;5095119;28;20028;-78
2023/06/18 11:17:55;;;;;;;14.25;10.25;;;;;;;18.83;74.25;95107.16;5015365;28;20065;-78
2023/06/18 11:20:22;;;;;;;14.50;10.40;;;;;;;18.97;72.69;95144.50;5082247;28;20051;-78